createdAt,value
2023-01-20T00:00:04.402Z,195.30
2023-01-20T00:01:04.315Z,205.50
2023-01-20T00:02:04.261Z,213.10
2023-01-20T00:03:04.201Z,210.10
2023-01-20T00:04:04.435Z,205.40
2023-01-20T00:05:04.083Z,266.60
2023-01-20T00:06:04.045Z,357.20
2023-01-20T00:07:03.978Z,309.00
2023-01-20T00:08:03.864Z,349.10
2023-01-20T00:09:03.907Z,337.00
2023-01-20T00:10:03.794Z,354.50
2023-01-20T00:11:03.700Z,319.90
2023-01-20T00:12:03.664Z,315.50
2023-01-20T00:13:03.603Z,322.50
2023-01-20T00:14:03.501Z,308.80
2023-01-20T00:15:03.438Z,294.90
2023-01-20T00:16:03.440Z,336.60
2023-01-20T00:17:03.341Z,342.60
2023-01-20T00:18:03.275Z,353.00
2023-01-20T00:19:03.174Z,310.60
2023-01-20T00:20:03.133Z,360.40
2023-01-20T00:21:03.058Z,331.30
2023-01-20T00:22:03.035Z,323.10
2023-01-20T00:23:02.944Z,338.90
2023-01-20T00:24:02.889Z,313.10
2023-01-20T00:25:02.809Z,274.40
2023-01-20T00:26:02.743Z,278.90
2023-01-20T00:27:02.656Z,281.10
2023-01-20T00:28:02.615Z,236.90
2023-01-20T00:29:02.547Z,267.30
2023-01-20T00:30:02.487Z,296.40
2023-01-20T00:31:02.458Z,231.30
2023-01-20T00:32:02.384Z,234.90
2023-01-20T00:33:02.292Z,254.20
2023-01-20T00:37:21.250Z,244.00
2023-01-20T00:38:22.174Z,258.30
2023-01-20T00:39:22.115Z,233.40
2023-01-20T00:40:22.036Z,288.00
2023-01-20T00:41:22.012Z,267.60
2023-01-20T00:42:21.954Z,239.50
2023-01-20T00:43:21.883Z,254.40
2023-01-20T00:44:21.806Z,250.60
2023-01-20T00:45:21.772Z,279.20
2023-01-20T00:46:21.762Z,305.60
2023-01-20T00:47:21.679Z,271.80
2023-01-20T00:48:21.572Z,239.50
2023-01-20T00:49:21.501Z,272.80
2023-01-20T00:50:21.398Z,275.70
2023-01-20T00:51:21.374Z,272.50
2023-01-20T00:52:21.327Z,278.60
2023-01-20T00:53:22.470Z,268.30
2023-01-20T00:54:21.200Z,264.50
2023-01-20T00:55:21.069Z,248.60
2023-01-20T00:56:21.029Z,242.80
2023-01-20T00:57:21.020Z,250.30
2023-01-20T00:58:20.906Z,287.80
2023-01-20T00:59:20.926Z,258.30
2023-01-20T01:00:20.752Z,235.60
2023-01-20T01:01:20.900Z,253.20
2023-01-20T01:02:20.660Z,249.40
2023-01-20T01:03:20.591Z,233.90
2023-01-20T01:04:20.522Z,240.60
2023-01-20T01:05:20.534Z,250.30
2023-01-20T01:06:20.403Z,236.30
2023-01-20T01:07:20.337Z,245.60
2023-01-20T01:08:41.252Z,263.90
2023-01-20T01:09:20.206Z,256.70
2023-01-20T01:10:20.165Z,244.60
2023-01-20T01:11:43.499Z,238.40
2023-01-20T01:12:20.059Z,254.70
2023-01-20T01:13:19.965Z,243.30
2023-01-20T01:14:19.971Z,254.70
2023-01-20T01:15:19.852Z,266.30
2023-01-20T01:16:19.825Z,255.00
2023-01-20T01:17:19.750Z,259.10
2023-01-20T01:18:19.642Z,249.30
2023-01-20T01:19:19.591Z,247.10
2023-01-20T01:20:19.476Z,249.10
2023-01-20T01:21:19.452Z,248.00
2023-01-20T01:22:19.382Z,257.50
2023-01-20T01:23:19.297Z,258.20
2023-01-20T01:24:19.222Z,242.60
2023-01-20T01:25:19.208Z,256.10
2023-01-20T01:26:19.157Z,245.00
2023-01-20T01:27:19.040Z,256.30
2023-01-20T01:28:19.030Z,257.60
2023-01-20T01:29:18.936Z,252.00
2023-01-20T01:30:18.870Z,255.60
2023-01-20T01:31:18.859Z,266.10
2023-01-20T01:32:18.775Z,265.70
2023-01-20T01:33:18.653Z,261.90
2023-01-20T01:34:18.640Z,286.70
2023-01-20T01:35:18.592Z,276.80
2023-01-20T01:36:18.466Z,261.40
2023-01-20T01:37:18.425Z,278.30
2023-01-20T01:38:18.343Z,260.10
2023-01-20T01:39:18.297Z,272.60
2023-01-20T01:40:18.269Z,263.50
2023-01-20T01:41:18.216Z,262.60
2023-01-20T01:42:18.166Z,270.90
2023-01-20T01:43:18.070Z,277.10
2023-01-20T01:44:17.983Z,259.20
2023-01-20T01:45:17.992Z,245.50
2023-01-20T01:46:17.838Z,250.20
2023-01-20T01:47:17.796Z,249.50
2023-01-20T01:48:17.732Z,252.60
2023-01-20T01:49:17.662Z,249.80
2023-01-20T01:50:17.621Z,243.80
2023-01-20T01:51:17.551Z,243.60
2023-01-20T01:52:17.498Z,239.10
2023-01-20T01:53:17.446Z,248.10
2023-01-20T01:54:17.337Z,243.10
2023-01-20T01:55:17.299Z,249.10
2023-01-20T01:56:17.245Z,242.80
2023-01-20T01:57:17.189Z,232.90
2023-01-20T01:58:17.077Z,226.00
2023-01-20T01:59:17.027Z,201.90
2023-01-20T02:00:16.998Z,187.50
2023-01-20T02:01:16.991Z,191.40
2023-01-20T02:02:17.234Z,182.00
2023-01-20T02:03:16.763Z,196.40
2023-01-20T02:04:16.711Z,187.50
2023-01-20T02:05:16.993Z,193.60
2023-01-20T02:06:16.578Z,180.60
2023-01-20T02:07:16.523Z,179.40
2023-01-20T02:08:16.488Z,184.80
2023-01-20T02:09:16.390Z,178.70
2023-01-20T02:10:16.391Z,185.90
2023-01-20T02:11:16.288Z,177.50
2023-01-20T02:12:16.228Z,184.80
2023-01-20T02:13:16.115Z,191.20
2023-01-20T02:14:16.096Z,189.70
2023-01-20T02:15:16.358Z,194.70
2023-01-20T02:16:16.022Z,202.40
2023-01-20T02:17:15.925Z,204.20
2023-01-20T02:18:15.850Z,204.80
2023-01-20T02:19:15.791Z,203.80
2023-01-20T02:20:15.688Z,200.00
2023-01-20T02:21:15.660Z,226.90
2023-01-20T02:22:15.559Z,213.60
2023-01-20T02:25:34.040Z,217.70
2023-01-20T02:26:34.914Z,204.40
2023-01-20T02:27:34.867Z,221.90
2023-01-20T02:28:34.773Z,211.50
2023-01-20T02:29:34.742Z,217.40
2023-01-20T02:30:34.721Z,210.10
2023-01-20T02:31:34.597Z,213.60
2023-01-20T02:32:34.548Z,202.00
2023-01-20T02:33:34.483Z,215.70
2023-01-20T02:34:34.388Z,213.00
2023-01-20T02:35:34.307Z,214.90
2023-01-20T02:36:34.261Z,209.70
2023-01-20T02:37:34.235Z,221.80
2023-01-20T02:38:34.141Z,226.50
2023-01-20T02:39:34.069Z,225.00
2023-01-20T02:40:34.014Z,228.70
2023-01-20T02:41:33.957Z,242.60
2023-01-20T02:42:33.956Z,233.50
2023-01-20T02:43:33.818Z,247.20
2023-01-20T02:44:33.780Z,246.60
2023-01-20T02:45:33.707Z,252.60
2023-01-20T02:46:33.660Z,250.20
2023-01-20T02:47:33.538Z,251.00
2023-01-20T02:48:33.549Z,258.90
2023-01-20T02:49:33.439Z,248.60
2023-01-20T02:50:33.375Z,242.90
2023-01-20T02:51:33.340Z,252.60
2023-01-20T02:52:33.265Z,245.90
2023-01-20T02:53:33.182Z,246.00
2023-01-20T02:54:33.184Z,255.50
2023-01-20T02:55:33.059Z,247.90
2023-01-20T02:56:32.999Z,252.90
2023-01-20T02:57:32.930Z,254.60
2023-01-20T02:58:32.897Z,265.10
2023-01-20T02:59:32.802Z,265.20
2023-01-20T03:00:32.817Z,272.90
2023-01-20T03:01:32.835Z,267.20
2023-01-20T03:02:32.638Z,264.10
2023-01-20T03:03:32.544Z,271.70
2023-01-20T03:04:32.520Z,273.40
2023-01-20T03:05:32.481Z,282.20
2023-01-20T03:06:32.396Z,271.20
2023-01-20T03:07:32.318Z,272.90
2023-01-20T03:08:32.239Z,274.50
2023-01-20T03:09:32.148Z,265.60
2023-01-20T03:10:32.083Z,279.30
2023-01-20T03:11:32.083Z,290.40
2023-01-20T03:12:32.231Z,270.60
2023-01-20T03:13:31.942Z,275.00
2023-01-20T03:14:31.857Z,273.90
2023-01-20T03:15:31.777Z,269.30
2023-01-20T03:16:31.761Z,270.20
2023-01-20T03:17:31.685Z,277.60
2023-01-20T03:18:31.614Z,271.60
2023-01-20T03:19:31.568Z,277.60
2023-01-20T03:20:31.492Z,262.50
2023-01-20T03:21:31.388Z,275.20
2023-01-20T03:22:31.337Z,273.20
2023-01-20T03:23:31.293Z,252.40
2023-01-20T03:24:31.265Z,263.60
2023-01-20T03:25:31.203Z,269.50
2023-01-20T03:26:31.082Z,252.00
2023-01-20T03:27:31.117Z,244.60
2023-01-20T03:28:31.051Z,247.80
2023-01-20T03:29:30.923Z,245.20
2023-01-20T03:30:31.003Z,239.70
2023-01-20T03:31:31.057Z,244.80
2023-01-20T03:32:30.763Z,239.60
2023-01-20T03:33:30.638Z,240.10
2023-01-20T03:34:30.575Z,229.10
2023-01-20T03:35:30.493Z,232.20
2023-01-20T03:36:30.479Z,237.10
2023-01-20T03:37:30.427Z,242.00
2023-01-20T03:38:30.357Z,235.60
2023-01-20T03:39:30.334Z,241.10
2023-01-20T03:40:30.186Z,249.40
2023-01-20T03:41:30.108Z,243.50
2023-01-20T03:42:30.138Z,234.70
2023-01-20T03:43:30.036Z,239.80
2023-01-20T03:44:29.930Z,232.60
2023-01-20T03:45:29.877Z,233.80
2023-01-20T03:46:29.808Z,244.30
2023-01-20T03:47:29.776Z,238.50
2023-01-20T03:48:29.677Z,240.30
2023-01-20T03:49:29.686Z,238.50
2023-01-20T03:50:30.366Z,236.40
2023-01-20T03:51:29.475Z,244.60
2023-01-20T03:52:47.870Z,229.10
2023-01-20T03:53:29.376Z,235.40
2023-01-20T03:54:29.324Z,235.00
2023-01-20T03:55:29.262Z,233.30
2023-01-20T03:56:29.233Z,236.10
2023-01-20T03:57:29.175Z,236.80
2023-01-20T03:58:29.081Z,236.80
2023-01-20T03:59:29.052Z,225.70
2023-01-20T04:00:29.747Z,246.10
2023-01-20T04:01:28.963Z,232.10
2023-01-20T04:02:28.957Z,237.50
2023-01-20T04:03:28.783Z,225.30
2023-01-20T04:04:28.703Z,229.50
2023-01-20T04:05:28.639Z,235.70
2023-01-20T04:06:28.533Z,230.80
2023-01-20T04:07:28.505Z,226.90
2023-01-20T04:08:28.430Z,231.70
2023-01-20T04:09:28.328Z,234.40
2023-01-20T04:10:28.367Z,239.70
2023-01-20T04:11:28.198Z,230.50
2023-01-20T04:14:46.601Z,238.90
2023-01-20T04:15:47.549Z,230.10
2023-01-20T04:16:47.442Z,234.60
2023-01-20T04:17:47.428Z,245.90
2023-01-20T04:18:47.370Z,238.80
2023-01-20T04:19:47.350Z,241.10
2023-01-20T04:20:47.224Z,250.80
2023-01-20T04:21:47.170Z,232.80
2023-01-20T04:22:47.151Z,226.60
2023-01-20T04:23:47.054Z,233.50
2023-01-20T04:24:46.986Z,221.50
2023-01-20T04:25:46.939Z,230.70
2023-01-20T04:26:46.831Z,226.80
2023-01-20T04:27:46.788Z,224.10
2023-01-20T04:28:46.726Z,226.60
2023-01-20T04:29:46.705Z,231.80
2023-01-20T04:30:46.655Z,220.50
2023-01-20T04:34:04.939Z,213.50
2023-01-20T04:35:05.925Z,215.40
2023-01-20T04:36:05.848Z,210.70
2023-01-20T04:37:05.771Z,202.90
2023-01-20T04:38:05.729Z,191.60
2023-01-20T04:39:05.653Z,199.40
2023-01-20T04:40:05.573Z,195.20
2023-01-20T04:41:05.535Z,189.20
2023-01-20T04:42:05.422Z,186.90
2023-01-20T04:43:05.419Z,192.30
2023-01-20T04:44:05.304Z,191.90
2023-01-20T04:45:05.298Z,177.70
2023-01-20T04:46:05.269Z,205.70
2023-01-20T04:47:05.186Z,194.70
2023-01-20T04:48:05.088Z,185.60
2023-01-20T04:49:04.978Z,189.70
2023-01-20T04:50:04.912Z,193.50
2023-01-20T04:51:04.868Z,196.20
2023-01-20T04:52:04.840Z,210.60
2023-01-20T04:53:04.800Z,200.20
2023-01-20T04:54:04.718Z,203.80
2023-01-20T04:55:04.641Z,220.50
2023-01-20T04:56:04.580Z,204.00
2023-01-20T04:57:04.534Z,197.10
2023-01-20T04:58:04.405Z,195.40
2023-01-20T04:59:04.359Z,208.20
2023-01-20T05:00:04.334Z,199.10
2023-01-20T05:01:04.286Z,213.70
2023-01-20T05:02:04.181Z,219.40
2023-01-20T05:03:04.154Z,213.30
2023-01-20T05:04:04.047Z,206.30
2023-01-20T05:05:03.987Z,220.10
2023-01-20T05:06:03.920Z,240.40
2023-01-20T05:07:03.853Z,236.70
2023-01-20T05:08:03.770Z,229.50
2023-01-20T05:09:03.778Z,226.00
2023-01-20T05:10:03.695Z,238.60
2023-01-20T05:11:03.637Z,228.10
2023-01-20T05:12:03.566Z,228.70
2023-01-20T05:13:03.449Z,225.50
2023-01-20T05:14:03.395Z,232.50
2023-01-20T05:17:21.798Z,239.80
2023-01-20T05:18:22.729Z,249.30
2023-01-20T05:19:22.708Z,247.70
2023-01-20T05:20:22.653Z,248.20
2023-01-20T05:21:22.568Z,249.50
2023-01-20T05:22:22.460Z,261.30
2023-01-20T05:23:22.411Z,258.80
2023-01-20T05:24:22.411Z,258.00
2023-01-20T05:25:22.306Z,275.90
2023-01-20T05:26:22.248Z,259.60
2023-01-20T05:27:22.149Z,263.70
2023-01-20T05:28:23.333Z,254.20
2023-01-20T05:29:22.121Z,265.00
2023-01-20T05:30:22.028Z,263.10
2023-01-20T05:31:22.045Z,253.00
2023-01-20T05:32:21.838Z,247.80
2023-01-20T05:33:21.798Z,242.70
2023-01-20T05:34:21.745Z,252.30
2023-01-20T05:35:21.648Z,252.30
2023-01-20T05:36:21.552Z,251.20
2023-01-20T05:37:21.488Z,263.00
2023-01-20T05:38:21.503Z,253.40
2023-01-20T05:39:21.399Z,258.80
2023-01-20T05:40:21.381Z,248.80
2023-01-20T05:41:21.256Z,245.80
2023-01-20T05:42:21.238Z,244.00
2023-01-20T05:43:21.160Z,257.30
2023-01-20T05:44:21.069Z,252.60
2023-01-20T05:45:21.039Z,257.30
2023-01-20T05:46:25.005Z,258.60
2023-01-20T05:47:20.909Z,249.20
2023-01-20T05:48:20.880Z,260.20
2023-01-20T05:49:20.780Z,270.10
2023-01-20T05:50:20.708Z,248.20
2023-01-20T05:51:20.647Z,258.50
2023-01-20T05:52:20.571Z,269.40
2023-01-20T05:53:20.502Z,261.50
2023-01-20T05:54:20.494Z,261.80
2023-01-20T05:55:20.384Z,262.10
2023-01-20T05:56:20.303Z,255.50
2023-01-20T05:57:20.287Z,274.70
2023-01-20T06:01:38.241Z,257.20
2023-01-20T06:02:39.133Z,261.00
2023-01-20T06:03:39.016Z,282.80
2023-01-20T06:04:38.925Z,271.20
2023-01-20T06:05:40.082Z,271.50
2023-01-20T06:06:38.799Z,268.50
2023-01-20T06:07:38.801Z,271.60
2023-01-20T06:08:38.693Z,262.50
2023-01-20T06:09:38.620Z,276.50
2023-01-20T06:10:38.573Z,270.70
2023-01-20T06:11:38.570Z,265.20
2023-01-20T06:12:38.457Z,271.60
2023-01-20T06:13:38.357Z,269.90
2023-01-20T06:14:38.340Z,265.20
2023-01-20T06:15:38.317Z,269.10
2023-01-20T06:16:38.210Z,271.30
2023-01-20T06:17:38.403Z,269.20
2023-01-20T06:18:38.090Z,272.00
2023-01-20T06:19:38.039Z,265.00
2023-01-20T06:20:37.931Z,255.70
2023-01-20T06:21:37.848Z,251.10
2023-01-20T06:22:37.795Z,257.70
2023-01-20T06:25:56.184Z,253.40
2023-01-20T06:26:57.147Z,256.70
2023-01-20T06:27:57.096Z,251.80
2023-01-20T06:28:56.980Z,257.80
2023-01-20T06:29:56.955Z,256.40
2023-01-20T06:30:56.908Z,267.90
2023-01-20T06:31:56.816Z,255.70
2023-01-20T06:32:56.733Z,269.70
2023-01-20T06:33:56.627Z,281.60
2023-01-20T06:34:56.633Z,273.50
2023-01-20T06:35:56.522Z,264.60
2023-01-20T06:36:56.561Z,254.30
2023-01-20T06:37:56.454Z,236.80
2023-01-20T06:38:56.311Z,238.40
2023-01-20T06:39:56.277Z,241.70
2023-01-20T06:40:56.254Z,242.00
2023-01-20T06:41:56.193Z,240.40
2023-01-20T06:45:17.433Z,241.00
2023-01-20T06:46:16.615Z,246.00
2023-01-20T06:47:16.610Z,248.10
2023-01-20T06:48:15.651Z,244.20
2023-01-20T06:49:15.614Z,256.20
2023-01-20T06:50:15.525Z,254.50
2023-01-20T06:51:15.505Z,261.50
2023-01-20T06:52:15.424Z,278.10
2023-01-20T06:53:15.324Z,264.40
2023-01-20T06:54:15.316Z,273.10
2023-01-20T06:55:15.541Z,262.40
2023-01-20T06:56:15.229Z,288.80
2023-01-20T06:57:15.155Z,280.70
2023-01-20T06:58:15.020Z,288.00
2023-01-20T06:59:14.983Z,292.30
2023-01-20T07:00:14.888Z,293.20
2023-01-20T07:01:15.115Z,286.10
2023-01-20T07:02:19.274Z,289.40
2023-01-20T07:03:14.721Z,289.30
2023-01-20T07:04:14.629Z,304.00
2023-01-20T07:05:14.890Z,304.90
2023-01-20T07:06:14.521Z,295.00
2023-01-20T07:07:14.472Z,282.30
2023-01-20T07:08:14.366Z,300.40
2023-01-20T07:09:14.318Z,285.40
2023-01-20T07:10:14.245Z,290.20
2023-01-20T07:11:14.164Z,301.60
2023-01-20T07:12:14.120Z,288.50
2023-01-20T07:13:14.057Z,283.10
2023-01-20T07:14:13.996Z,287.10
2023-01-20T07:15:14.250Z,291.50
2023-01-20T07:16:15.810Z,299.60
2023-01-20T07:17:13.843Z,272.50
2023-01-20T07:18:13.748Z,286.20
2023-01-20T07:19:13.687Z,286.90
2023-01-20T07:23:31.407Z,275.00
2023-01-20T07:24:32.374Z,265.30
2023-01-20T07:25:32.275Z,269.00
2023-01-20T07:26:32.176Z,256.00
2023-01-20T07:27:32.167Z,264.60
2023-01-20T07:28:32.077Z,264.30
2023-01-20T07:29:32.020Z,279.80
2023-01-20T07:30:31.927Z,266.40
2023-01-20T07:31:31.922Z,265.60
2023-01-20T07:32:31.869Z,264.80
2023-01-20T07:33:31.777Z,270.50
2023-01-20T07:34:31.713Z,275.30
2023-01-20T07:35:31.615Z,267.60
2023-01-20T07:36:31.533Z,284.10
2023-01-20T07:37:31.456Z,299.80
2023-01-20T07:38:31.455Z,291.20
2023-01-20T07:39:31.360Z,271.30
2023-01-20T07:40:31.287Z,280.20
2023-01-20T07:41:31.283Z,294.60
2023-01-20T07:42:31.196Z,291.90
2023-01-20T07:43:31.072Z,286.70
2023-01-20T07:44:31.881Z,292.50
2023-01-20T07:45:31.049Z,281.60
2023-01-20T07:46:30.913Z,301.40
2023-01-20T07:47:30.840Z,299.10
2023-01-20T07:48:30.787Z,300.40
2023-01-20T07:49:30.789Z,288.90
2023-01-20T07:50:31.384Z,297.50
2023-01-20T07:51:30.648Z,300.30
2023-01-20T07:52:30.504Z,298.00
2023-01-20T07:53:30.507Z,293.70
2023-01-20T07:54:30.478Z,274.10
2023-01-20T07:55:30.391Z,263.40
2023-01-20T07:56:30.339Z,276.30
2023-01-20T07:59:48.596Z,274.40
2023-01-20T08:00:49.509Z,266.70
2023-01-20T08:01:49.617Z,278.30
2023-01-20T08:02:49.364Z,274.00
2023-01-20T08:03:49.363Z,260.70
2023-01-20T08:04:49.471Z,259.80
2023-01-20T08:05:49.200Z,256.00
2023-01-20T08:06:49.138Z,259.70
2023-01-20T08:07:49.044Z,255.50
2023-01-20T08:08:48.983Z,267.50
2023-01-20T08:09:48.961Z,255.70
2023-01-20T08:10:48.907Z,258.60
2023-01-20T08:11:48.825Z,267.60
2023-01-20T08:12:48.727Z,265.40
2023-01-20T08:13:49.385Z,259.20
2023-01-20T08:14:48.580Z,273.70
2023-01-20T08:15:48.525Z,251.20
2023-01-20T08:16:48.474Z,245.50
2023-01-20T08:17:48.436Z,269.90
2023-01-20T08:18:48.452Z,266.50
2023-01-20T08:19:48.346Z,258.20
2023-01-20T08:20:48.247Z,259.80
2023-01-20T08:21:48.153Z,257.20
2023-01-20T08:22:48.211Z,261.30
2023-01-20T08:23:48.100Z,264.60
2023-01-20T08:24:49.050Z,271.50
2023-01-20T08:25:47.907Z,258.40
2023-01-20T08:26:47.912Z,277.10
2023-01-20T08:27:47.813Z,279.30
2023-01-20T08:28:47.712Z,277.90
2023-01-20T08:29:47.681Z,276.80
2023-01-20T08:30:48.689Z,261.80
2023-01-20T08:31:48.075Z,265.00
2023-01-20T08:32:47.464Z,275.00
2023-01-20T08:33:47.416Z,269.70
2023-01-20T08:37:05.685Z,258.90
2023-01-20T08:38:06.641Z,261.30
2023-01-20T08:39:06.565Z,261.80
2023-01-20T08:40:06.486Z,257.90
2023-01-20T08:41:06.428Z,259.40
2023-01-20T08:42:06.354Z,251.60
2023-01-20T08:43:06.268Z,249.20
2023-01-20T08:44:06.232Z,238.80
2023-01-20T08:45:06.209Z,230.40
2023-01-20T08:46:06.122Z,227.50
2023-01-20T08:47:06.104Z,219.60
2023-01-20T08:48:06.025Z,251.30
2023-01-20T08:49:06.671Z,191.40
2023-01-20T08:50:05.876Z,200.40
2023-01-20T08:51:05.832Z,199.60
2023-01-20T08:52:05.712Z,211.50
2023-01-20T08:53:05.679Z,205.80
2023-01-20T08:54:05.647Z,216.90
2023-01-20T08:55:06.195Z,210.20
2023-01-20T08:56:05.885Z,212.80
2023-01-20T08:57:05.390Z,189.90
2023-01-20T08:58:05.397Z,205.40
2023-01-20T08:59:05.291Z,185.90
2023-01-20T09:00:05.244Z,192.90
2023-01-20T09:01:05.194Z,193.00
2023-01-20T09:02:05.131Z,180.30
2023-01-20T09:03:05.036Z,186.20
2023-01-20T09:04:06.713Z,175.50
2023-01-20T09:05:05.668Z,179.10
2023-01-20T09:06:04.846Z,193.30
2023-01-20T09:07:04.849Z,202.90
2023-01-20T09:08:04.724Z,183.90
2023-01-20T09:09:04.830Z,183.60
2023-01-20T09:10:05.344Z,168.90
2023-01-20T09:11:04.542Z,180.80
2023-01-20T09:12:08.498Z,176.00
2023-01-20T09:13:04.458Z,158.40
2023-01-20T09:14:04.326Z,172.90
2023-01-20T09:15:05.113Z,176.10
2023-01-20T09:16:04.291Z,183.10
2023-01-20T09:17:04.125Z,191.30
2023-01-20T09:18:04.148Z,200.60
2023-01-20T09:19:04.061Z,189.40
2023-01-20T09:20:03.967Z,177.90
2023-01-20T09:21:03.864Z,182.80
2023-01-20T09:22:04.711Z,178.30
2023-01-20T09:23:03.883Z,179.70
2023-01-20T09:24:04.026Z,183.40
2023-01-20T09:25:04.111Z,191.50
2023-01-20T09:26:03.595Z,181.10
2023-01-20T09:27:03.475Z,177.20
2023-01-20T09:28:04.279Z,184.60
2023-01-20T09:29:03.340Z,178.60
2023-01-20T09:30:04.555Z,168.30
2023-01-20T09:31:03.393Z,174.30
2023-01-20T09:32:03.258Z,183.20
2023-01-20T09:33:03.109Z,174.40
2023-01-20T09:34:03.089Z,183.70
2023-01-20T09:35:03.034Z,174.80
2023-01-20T09:36:02.947Z,184.60
2023-01-20T09:37:02.867Z,175.20
2023-01-20T09:38:02.822Z,180.80
2023-01-20T09:39:02.726Z,194.30
2023-01-20T09:40:02.662Z,180.00
2023-01-20T09:41:02.607Z,178.10
2023-01-20T09:42:02.625Z,178.50
2023-01-20T09:43:02.526Z,190.50
2023-01-20T09:44:02.396Z,173.40
2023-01-20T09:45:02.406Z,184.70
2023-01-20T09:46:02.371Z,190.40
2023-01-20T09:47:02.316Z,181.70
2023-01-20T09:48:02.241Z,181.20
2023-01-20T09:49:02.072Z,176.70
2023-01-20T09:50:02.029Z,181.70
2023-01-20T09:51:01.968Z,179.20
2023-01-20T09:52:01.933Z,172.50
2023-01-20T09:53:01.884Z,179.80
2023-01-20T09:54:01.802Z,171.60
2023-01-20T09:55:01.742Z,173.30
2023-01-20T09:56:01.671Z,169.90
2023-01-20T09:57:01.612Z,180.60
2023-01-20T09:58:01.501Z,168.20
2023-01-20T09:59:01.564Z,163.30
2023-01-20T10:00:01.432Z,165.10
2023-01-20T10:01:01.326Z,170.60
2023-01-20T10:02:01.325Z,157.30
2023-01-20T10:03:01.211Z,174.10
2023-01-20T10:04:02.893Z,170.30
2023-01-20T10:05:01.162Z,154.90
2023-01-20T10:06:22.030Z,154.40
2023-01-20T10:07:01.008Z,163.20
2023-01-20T10:08:00.951Z,146.90
2023-01-20T10:09:05.834Z,149.10
2023-01-20T10:10:00.753Z,153.70
2023-01-20T10:11:00.719Z,159.80
2023-01-20T10:12:00.654Z,151.80
2023-01-20T10:13:00.553Z,157.70
2023-01-20T10:14:01.186Z,148.80
2023-01-20T10:15:03.170Z,156.10
2023-01-20T10:16:04.449Z,161.70
2023-01-20T10:19:30.024Z,152.60
2023-01-20T10:19:34.992Z,147.40
2023-01-20T10:20:36.701Z,154.90
2023-01-20T10:21:36.821Z,155.60
2023-01-20T10:22:34.839Z,158.90
2023-01-20T10:23:34.777Z,158.00
2023-01-20T10:24:34.699Z,158.70
2023-01-20T10:27:52.997Z,146.70
2023-01-20T10:28:53.887Z,134.60
2023-01-20T10:29:53.833Z,144.30
2023-01-20T10:30:54.766Z,133.70
2023-01-20T10:31:53.718Z,143.70
2023-01-20T10:32:55.614Z,141.60
2023-01-20T10:33:56.089Z,161.30
2023-01-20T10:34:56.504Z,148.80
2023-01-20T10:35:56.542Z,149.90
2023-01-20T10:36:55.954Z,151.30
2023-01-20T10:37:54.111Z,144.30
2023-01-20T10:38:54.511Z,138.80
2023-01-20T10:39:53.177Z,134.20
2023-01-20T10:40:53.204Z,124.00
2023-01-20T10:41:53.118Z,130.30
2023-01-20T10:42:53.309Z,128.00
2023-01-20T10:43:53.053Z,140.00
2023-01-20T10:44:52.902Z,131.90
2023-01-20T10:45:52.809Z,138.70
2023-01-20T10:46:53.079Z,137.90
2023-01-20T10:47:52.726Z,133.00
2023-01-20T10:48:52.958Z,134.80
2023-01-20T10:49:53.016Z,134.20
2023-01-20T10:50:53.609Z,130.10
2023-01-20T10:51:52.403Z,140.30
2023-01-20T10:52:53.238Z,120.10
2023-01-20T10:53:52.304Z,141.40
2023-01-20T10:54:52.804Z,133.70
2023-01-20T10:55:52.171Z,132.00
2023-01-20T10:56:52.210Z,118.90
2023-01-20T10:57:54.583Z,137.20
2023-01-20T10:58:51.985Z,134.10
2023-01-20T10:59:51.945Z,136.70
2023-01-20T11:00:51.834Z,131.10
2023-01-20T11:02:02.479Z,130.60
2023-01-20T11:02:51.827Z,132.80
2023-01-20T11:03:51.641Z,142.90
2023-01-20T11:04:51.609Z,144.60
2023-01-20T11:05:51.581Z,149.20
2023-01-20T11:06:51.592Z,148.40
2023-01-20T11:07:51.405Z,150.70
2023-01-20T11:08:51.383Z,141.90
2023-01-20T11:09:51.273Z,133.40
2023-01-20T11:10:52.521Z,139.30
2023-01-20T11:11:52.872Z,141.50
2023-01-20T11:12:51.840Z,136.20
2023-01-20T11:13:51.011Z,147.70
2023-01-20T11:14:51.005Z,138.20
2023-01-20T11:15:50.901Z,134.00
2023-01-20T11:16:50.918Z,150.10
2023-01-20T11:17:50.760Z,139.30
2023-01-20T11:18:51.448Z,134.60
2023-01-20T11:19:50.704Z,149.40
2023-01-20T11:20:50.634Z,138.70
2023-01-20T11:21:50.507Z,132.40
2023-01-20T11:22:50.438Z,136.20
2023-01-20T11:23:50.404Z,137.60
2023-01-20T11:24:50.299Z,146.60
2023-01-20T11:25:50.245Z,142.70
2023-01-20T11:26:50.236Z,148.00
2023-01-20T11:27:50.183Z,149.80
2023-01-20T11:28:50.076Z,142.10
2023-01-20T11:29:50.004Z,135.50
2023-01-20T11:30:50.012Z,132.70
2023-01-20T11:31:49.905Z,133.00
2023-01-20T11:32:50.092Z,128.10
2023-01-20T11:33:49.753Z,126.70
2023-01-20T11:34:49.740Z,128.60
2023-01-20T11:35:49.644Z,128.90
2023-01-20T11:36:49.539Z,126.60
2023-01-20T11:37:49.486Z,127.30
2023-01-20T11:41:07.785Z,143.70
2023-01-20T11:42:08.719Z,141.20
2023-01-20T11:43:08.640Z,139.70
2023-01-20T11:44:08.581Z,144.50
2023-01-20T11:45:20.795Z,140.40
2023-01-20T11:46:08.503Z,134.60
2023-01-20T11:47:08.381Z,130.90
2023-01-20T11:48:08.348Z,129.50
2023-01-20T11:49:08.284Z,130.70
2023-01-20T11:50:08.213Z,123.90
2023-01-20T11:51:08.129Z,126.20
2023-01-20T11:52:08.085Z,124.20
2023-01-20T11:53:08.022Z,123.70
2023-01-20T11:54:07.992Z,125.00
2023-01-20T11:55:07.877Z,120.00
2023-01-20T11:56:07.816Z,123.50
2023-01-20T11:57:07.752Z,129.60
2023-01-20T11:58:07.710Z,141.30
2023-01-20T11:59:07.628Z,140.10
2023-01-20T12:00:07.597Z,132.70
2023-01-20T12:01:07.512Z,139.80
2023-01-20T12:02:08.308Z,135.60
2023-01-20T12:03:07.413Z,128.80
2023-01-20T12:04:07.426Z,129.00
2023-01-20T12:05:07.271Z,134.10
2023-01-20T12:06:07.211Z,132.00
2023-01-20T12:07:07.708Z,126.90
2023-01-20T12:08:07.098Z,134.50
2023-01-20T12:09:07.011Z,124.80
2023-01-20T12:10:06.936Z,129.10
2023-01-20T12:11:08.996Z,121.30
2023-01-20T12:12:10.283Z,133.00
2023-01-20T12:13:12.221Z,132.90
2023-01-20T12:14:25.774Z,125.00
2023-01-20T12:15:19.279Z,124.10
2023-01-20T12:16:10.875Z,116.30
2023-01-20T12:17:06.479Z,114.20
2023-01-20T12:18:09.441Z,131.30
2023-01-20T12:19:06.392Z,118.00
2023-01-20T12:20:06.310Z,111.80
2023-01-20T12:21:06.224Z,110.60
2023-01-20T12:22:06.193Z,110.20
2023-01-20T12:23:07.004Z,123.30
2023-01-20T12:24:06.078Z,122.20
2023-01-20T12:25:06.006Z,115.30
2023-01-20T12:26:05.922Z,119.70
2023-01-20T12:27:05.841Z,110.20
2023-01-20T12:28:05.763Z,111.40
2023-01-20T12:29:05.727Z,116.90
2023-01-20T12:30:05.659Z,120.50
2023-01-20T12:31:05.669Z,109.40
2023-01-20T12:32:05.535Z,102.00
2023-01-20T12:33:05.431Z,110.00
2023-01-20T12:34:05.727Z,99.00
2023-01-20T12:35:05.357Z,103.10
2023-01-20T12:36:05.263Z,100.50
2023-01-20T12:37:05.199Z,105.30
2023-01-20T12:38:05.140Z,101.30
2023-01-20T12:39:05.045Z,98.60
2023-01-20T12:40:05.065Z,97.00
2023-01-20T12:41:04.990Z,107.20
2023-01-20T12:42:04.931Z,95.30
2023-01-20T12:43:04.880Z,104.00
2023-01-20T12:44:04.751Z,93.20
2023-01-20T12:45:04.711Z,107.20
2023-01-20T12:46:04.738Z,100.70
2023-01-20T12:47:04.535Z,93.50
2023-01-20T12:48:04.526Z,96.40
2023-01-20T12:49:04.423Z,93.90
2023-01-20T12:50:04.387Z,92.10
2023-01-20T12:51:04.319Z,100.40
2023-01-20T12:52:04.255Z,99.50
2023-01-20T12:53:04.175Z,96.00
2023-01-20T12:54:04.114Z,102.10
2023-01-20T12:55:04.080Z,106.50
2023-01-20T12:56:04.018Z,93.00
2023-01-20T12:57:03.954Z,92.60
2023-01-20T12:58:03.884Z,100.30
2023-01-20T12:59:03.791Z,108.80
2023-01-20T13:00:03.761Z,105.30
2023-01-20T13:01:03.685Z,111.90
2023-01-20T13:02:03.603Z,91.00